Time;durP1;ratioP1;P1;durP2;ratioP2;P2;SDS_P1;SDS_P2;PMS_P1;PMS_P2;Temp;Humidity;BMP_temperature;BMP_pressure;BME280_temperature;BME280_humidity;BME280_pressure;Samples;Min_cycle;Max_cycle;Signal;HPM_P1;HPM_P2
2021/12/01 06:34:21;;;;;;;46.45;27.45;;;;;;;;;;5604341;23;20047;-78
2021/12/01 06:37:07;;;;;;;36.88;24.27;;;;;;;;;;4915858;29;20039;-77
2021/12/01 06:39:54;;;;;;;30.38;20.15;;;;;;;;;;4914942;29;20071;-78
2021/12/01 06:42:41;;;;;;;48.33;29.20;;;;;;;;;;4918648;29;20044;-78
2021/12/01 06:45:28;;;;;;;38.92;25.02;;;;;;;;;;4916284;29;20599;-77
2021/12/01 06:48:14;;;;;;;46.20;31.13;;;;;;;;;;4915316;29;20062;-78
2021/12/01 06:51:01;;;;;;;35.58;23.70;;;;;;;;;;4914436;29;20047;-78
2021/12/01 06:53:48;;;;;;;34.22;21.02;;;;;;;;;;4912369;29;20380;-77
2021/12/01 06:56:34;;;;;;;42.22;27.10;;;;;;;;;;4915387;29;20032;-78
2021/12/01 06:59:21;;;;;;;31.13;19.92;;;;;;;;;;4912035;29;20031;-78
2021/12/01 07:02:08;;;;;;;40.50;26.27;;;;;;;;;;4914643;29;20043;-78
2021/12/01 07:04:55;;;;;;;43.42;26.33;;;;;;;;;;4914890;29;20392;-78
2021/12/01 07:07:41;;;;;;;37.15;23.75;;;;;;;;;;4914690;29;20043;-78
2021/12/01 07:10:28;;;;;;;30.23;20.30;;;;;;;;;;4917022;29;20442;-78
2021/12/01 07:13:15;;;;;;;27.35;19.45;;;;;;;;;;4914355;29;20039;-77
2021/12/01 07:16:02;;;;;;;37.30;24.60;;;;;;;;;;4919234;29;20025;-76
2021/12/01 07:18:49;;;;;;;39.38;24.98;;;;;;;;;;4915945;29;20048;-77
2021/12/01 07:21:36;;;;;;;40.03;24.77;;;;;;;;;;4915046;29;20600;-78
2021/12/01 07:24:23;;;;;;;37.40;23.15;;;;;;;;;;4925220;29;20363;-77
2021/12/01 07:27:10;;;;;;;29.60;19.77;;;;;;;;;;4912651;29;20059;-78
2021/12/01 07:29:56;;;;;;;41.22;27.27;;;;;;;;;;4911882;29;20059;-79
2021/12/01 07:32:43;;;;;;;25.70;17.33;;;;;;;;;;4913863;29;20399;-78
2021/12/01 07:35:30;;;;;;;35.65;22.63;;;;;;;;;;4910073;29;20044;-77
2021/12/01 07:38:16;;;;;;;42.13;21.88;;;;;;;;;;4908627;29;20033;-77
2021/12/01 07:41:03;;;;;;;27.60;17.92;;;;;;;;;;4914453;29;20117;-76
2021/12/01 07:43:50;;;;;;;26.83;17.10;;;;;;;;;;4916960;29;20039;-77
2021/12/01 07:46:37;;;;;;;38.42;23.75;;;;;;;;;;4914560;29;20032;-77
2021/12/01 07:49:23;;;;;;;29.73;17.98;;;;;;;;;;4913859;29;20047;-77
2021/12/01 07:52:10;;;;;;;27.80;17.20;;;;;;;;;;4901752;29;20036;-77
2021/12/01 07:54:57;;;;;;;35.33;23.40;;;;;;;;;;4915782;29;20036;-77
2021/12/01 07:57:45;;;;;;;28.55;18.67;;;;;;;;;;4913347;29;20036;-77
2021/12/01 08:00:32;;;;;;;40.13;23.88;;;;;;;;;;4915132;29;20040;-77
2021/12/01 08:03:18;;;;;;;31.58;21.30;;;;;;;;;;4913192;29;20038;-77
2021/12/01 08:06:05;;;;;;;27.45;16.88;;;;;;;;;;4912433;29;20040;-77
2021/12/01 08:08:52;;;;;;;25.80;15.60;;;;;;;;;;4908214;29;20060;-77
2021/12/01 08:11:39;;;;;;;29.52;19.08;;;;;;;;;;4914994;29;20411;-78
2021/12/01 08:14:26;;;;;;;24.58;15.35;;;;;;;;;;4913974;29;20046;-77
2021/12/01 08:17:12;;;;;;;30.05;19.20;;;;;;;;;;4912795;29;20091;-77
2021/12/01 08:19:59;;;;;;;25.08;17.60;;;;;;;;;;4914482;29;20055;-78
2021/12/01 08:22:46;;;;;;;28.95;17.88;;;;;;;;;;4907777;29;20048;-77
2021/12/01 08:25:33;;;;;;;26.75;15.77;;;;;;;;;;4910547;29;20554;-77
2021/12/01 08:28:19;;;;;;;23.50;15.25;;;;;;;;;;4911616;29;20050;-78
2021/12/01 08:31:06;;;;;;;20.35;12.93;;;;;;;;;;4905199;29;20040;-77
2021/12/01 08:33:53;;;;;;;21.02;13.20;;;;;;;;;;4915151;29;20043;-78
2021/12/01 08:36:39;;;;;;;20.58;13.45;;;;;;;;;;4908518;29;20040;-77
2021/12/01 08:39:26;;;;;;;26.52;16.30;;;;;;;;;;4908873;29;20048;-77
2021/12/01 08:42:13;;;;;;;20.30;13.35;;;;;;;;;;4915647;29;20035;-77
2021/12/01 08:45:00;;;;;;;23.75;14.35;;;;;;;;;;4914882;29;20055;-77
2021/12/01 08:47:48;;;;;;;21.15;13.00;;;;;;;;;;4908869;29;20046;-77
2021/12/01 08:50:35;;;;;;;22.20;12.43;;;;;;;;;;4908368;29;20028;-77
2021/12/01 08:53:22;;;;;;;23.85;15.60;;;;;;;;;;4911709;29;20028;-76
2021/12/01 08:56:09;;;;;;;23.40;13.73;;;;;;;;;;4905998;29;20048;-78
2021/12/01 08:58:56;;;;;;;17.70;11.75;;;;;;;;;;4911496;29;20052;-77
2021/12/01 09:01:42;;;;;;;21.25;13.07;;;;;;;;;;4906813;29;20062;-77
2021/12/01 09:04:29;;;;;;;21.63;13.60;;;;;;;;;;4909142;29;20093;-76
2021/12/01 09:07:19;;;;;;;23.52;14.43;;;;;;;;;;4906262;29;20041;-78
2021/12/01 09:10:07;;;;;;;20.58;12.93;;;;;;;;;;4905727;29;20040;-78
2021/12/01 09:12:54;;;;;;;19.00;12.15;;;;;;;;;;4915642;29;20038;-78
2021/12/01 09:15:42;;;;;;;18.83;12.13;;;;;;;;;;4911374;29;20047;-78
2021/12/01 09:18:29;;;;;;;17.80;10.88;;;;;;;;;;4906582;29;20025;-78
2021/12/01 09:21:18;;;;;;;14.30;9.40;;;;;;;;;;4907386;29;20044;-76
2021/12/01 09:24:05;;;;;;;16.63;10.88;;;;;;;;;;4911483;29;20047;-77
2021/12/01 09:26:52;;;;;;;17.38;11.00;;;;;;;;;;4913154;28;20044;-77
2021/12/01 09:29:38;;;;;;;15.82;10.93;;;;;;;;;;4911071;29;20063;-76
2021/12/01 09:32:25;;;;;;;12.52;7.45;;;;;;;;;;4910001;29;20043;-77
2021/12/01 09:35:15;;;;;;;19.73;11.27;;;;;;;;;;4913839;29;20060;-77
2021/12/01 09:38:02;;;;;;;17.98;9.77;;;;;;;;;;4909752;29;20040;-77
2021/12/01 09:40:51;;;;;;;15.45;9.82;;;;;;;;;;4908316;29;20021;-77
2021/12/01 09:43:38;;;;;;;13.02;7.90;;;;;;;;;;4901030;29;20504;-78
2021/12/01 09:46:26;;;;;;;14.38;9.45;;;;;;;;;;4908648;29;20040;-78
2021/12/01 09:49:13;;;;;;;13.48;9.13;;;;;;;;;;4913078;29;20044;-77
2021/12/01 09:52:00;;;;;;;12.23;7.63;;;;;;;;;;4912791;29;20028;-77
2021/12/01 09:54:48;;;;;;;14.60;9.13;;;;;;;;;;4917508;29;20036;-77
2021/12/01 09:57:35;;;;;;;11.18;6.88;;;;;;;;;;4914462;29;20036;-78
2021/12/01 10:00:22;;;;;;;10.65;7.72;;;;;;;;;;4902493;29;20043;-76
2021/12/01 10:03:25;;;;;;;;;;;;;;;;;;;;;
2021/12/01 10:06:14;;;;;;;10.10;6.32;;;;;;;;;;4911140;29;20040;-77
2021/12/01 10:09:04;;;;;;;14.30;8.40;;;;;;;;;;4913711;29;20048;-78
2021/12/01 10:11:51;;;;;;;11.43;6.65;;;;;;;;;;4909914;29;20036;-78
2021/12/01 10:14:38;;;;;;;11.05;6.70;;;;;;;;;;4912952;29;20040;-77
2021/12/01 10:17:34;;;;;;;11.02;7.20;;;;;;;;;;4911492;29;20032;-78
2021/12/01 10:20:21;;;;;;;10.30;6.55;;;;;;;;;;4910024;29;20042;-78
2021/12/01 10:23:08;;;;;;;11.75;7.20;;;;;;;;;;4915096;29;20035;-78
2021/12/01 10:25:54;;;;;;;11.85;7.93;;;;;;;;;;4903408;29;20052;-77
2021/12/01 10:28:42;;;;;;;11.35;6.70;;;;;;;;;;4916261;29;20051;-76
2021/12/01 10:31:41;;;;;;;10.02;5.93;;;;;;;;;;4914582;29;20043;-77
2021/12/01 10:34:35;;;;;;;9.85;6.70;;;;;;;;;;4917976;29;20040;-77
2021/12/01 10:37:28;;;;;;;9.40;5.53;;;;;;;;;;4927011;29;20028;-77
2021/12/01 10:40:18;;;;;;;10.23;6.05;;;;;;;;;;4921886;29;20040;-78
2021/12/01 10:43:11;;;;;;;5.88;3.80;;;;;;;;;;4912025;29;20036;-78
2021/12/01 10:45:59;;;;;;;9.38;5.80;;;;;;;;;;4912863;29;20526;-77
2021/12/01 10:48:59;;;;;;;9.48;6.07;;;;;;;;;;4908910;29;20048;-77
2021/12/01 10:51:49;;;;;;;8.50;5.43;;;;;;;;;;4913218;29;20046;-78
2021/12/01 10:54:37;;;;;;;7.95;4.72;;;;;;;;;;4924463;29;20039;-79
2021/12/01 10:57:24;;;;;;;8.25;4.63;;;;;;;;;;4914528;29;20032;-77
2021/12/01 11:00:15;;;;;;;5.75;3.72;;;;;;;;;;4911490;29;20036;-77
2021/12/01 11:03:08;;;;;;;9.30;5.47;;;;;;;;;;4911157;29;20036;-77
2021/12/01 11:05:56;;;;;;;9.55;5.80;;;;;;;;;;4910661;29;20036;-77
2021/12/01 11:08:43;;;;;;;9.18;4.93;;;;;;;;;;4903379;29;20081;-77
2021/12/01 11:11:44;;;;;;;8.38;5.47;;;;;;;;;;4910355;29;20047;-77
2021/12/01 11:14:42;;;;;;;8.25;5.40;;;;;;;;;;4911660;29;20036;-78
2021/12/01 11:17:41;;;;;;;6.63;4.63;;;;;;;;;;4914639;29;20028;-77
2021/12/01 11:20:45;;;;;;;8.38;4.75;;;;;;;;;;4911035;29;20072;-78
2021/12/01 11:23:36;;;;;;;6.53;4.35;;;;;;;;;;4905911;29;20032;-77
2021/12/01 11:26:24;;;;;;;6.25;3.78;;;;;;;;;;4914334;29;20028;-76
2021/12/01 11:29:16;;;;;;;5.90;3.78;;;;;;;;;;4915060;29;20801;-77
2021/12/01 11:32:02;;;;;;;7.38;4.03;;;;;;;;;;4914092;29;20044;-77
2021/12/01 11:34:49;;;;;;;6.90;4.53;;;;;;;;;;4914866;29;20056;-78
2021/12/01 11:37:36;;;;;;;6.10;3.63;;;;;;;;;;4911840;29;20024;-77
2021/12/01 11:40:23;;;;;;;9.30;3.60;;;;;;;;;;4913194;29;20650;-77
2021/12/01 11:43:11;;;;;;;5.20;3.65;;;;;;;;;;4912913;29;20036;-78
2021/12/01 11:45:58;;;;;;;5.35;3.30;;;;;;;;;;4905563;29;20043;-77
2021/12/01 11:48:55;;;;;;;7.20;4.03;;;;;;;;;;4906084;29;20050;-78
2021/12/01 11:51:47;;;;;;;4.88;2.70;;;;;;;;;;4910058;29;20032;-77
2021/12/01 11:54:41;;;;;;;6.30;3.40;;;;;;;;;;4914842;29;20036;-79
2021/12/01 11:57:37;;;;;;;8.75;3.40;;;;;;;;;;4912091;29;20043;-77
2021/12/01 12:00:44;;;;;;;7.97;3.40;;;;;;;;;;4911960;29;20032;-78
2021/12/01 12:03:31;;;;;;;5.28;2.80;;;;;;;;;;4910401;29;20396;-77
2021/12/01 12:06:20;;;;;;;6.20;3.70;;;;;;;;;;4920099;29;20408;-77
2021/12/01 12:09:08;;;;;;;4.72;2.80;;;;;;;;;;4913628;29;20052;-77
2021/12/01 12:11:57;;;;;;;6.07;3.20;;;;;;;;;;4910466;29;20043;-80
2021/12/01 12:14:46;;;;;;;7.78;2.83;;;;;;;;;;4909065;29;20051;-78
2021/12/01 12:17:35;;;;;;;5.03;3.13;;;;;;;;;;4913118;29;20396;-78
2021/12/01 12:20:29;;;;;;;5.82;3.47;;;;;;;;;;4912961;29;20046;-78
2021/12/01 12:23:16;;;;;;;6.32;3.20;;;;;;;;;;4910888;29;20514;-77
2021/12/01 12:26:04;;;;;;;4.97;2.47;;;;;;;;;;4903731;29;20050;-78
2021/12/01 12:29:00;;;;;;;4.20;2.70;;;;;;;;;;4912966;29;20044;-78
2021/12/01 12:31:48;;;;;;;4.80;2.45;;;;;;;;;;4909652;29;20028;-78
2021/12/01 12:34:48;;;;;;;6.97;3.10;;;;;;;;;;4906725;29;20109;-78
2021/12/01 12:37:36;;;;;;;6.70;3.10;;;;;;;;;;4913832;29;20028;-78
2021/12/01 12:40:23;;;;;;;5.72;3.38;;;;;;;;;;4911470;29;20412;-78
2021/12/01 12:43:11;;;;;;;6.20;3.45;;;;;;;;;;4909225;29;20052;-79
2021/12/01 12:46:01;;;;;;;7.97;4.47;;;;;;;;;;4908171;29;20044;-78
2021/12/01 12:48:49;;;;;;;9.93;5.35;;;;;;;;;;4910124;29;20043;-78
2021/12/01 12:51:38;;;;;;;7.72;5.13;;;;;;;;;;4913890;29;20043;-78
2021/12/01 12:54:25;;;;;;;10.43;6.53;;;;;;;;;;4909733;29;20047;-78
2021/12/01 12:57:13;;;;;;;8.23;5.40;;;;;;;;;;4912321;29;20428;-78
2021/12/01 13:00:30;;;;;;;11.10;6.10;;;;;;;;;;4908759;29;20058;-78
2021/12/01 13:03:25;;;;;;;11.52;6.65;;;;;;;;;;4909223;29;20058;-78
2021/12/01 13:06:25;;;;;;;14.05;7.80;;;;;;;;;;4913136;29;20514;-78
2021/12/01 13:09:29;;;;;;;;;;;;;;;;;;;;;
2021/12/01 13:12:25;;;;;;;13.07;8.20;;;;;;;;;;4909030;29;20036;-79
2021/12/01 13:15:19;;;;;;;11.27;7.10;;;;;;;;;;4911860;29;20044;-79
2021/12/01 13:18:17;;;;;;;17.73;9.32;;;;;;;;;;4909242;29;20040;-79
2021/12/01 13:21:09;;;;;;;16.23;9.10;;;;;;;;;;4908880;29;20044;-77
2021/12/01 13:23:57;;;;;;;20.52;11.52;;;;;;;;;;4915200;29;20042;-79
2021/12/01 13:26:43;;;;;;;22.92;12.98;;;;;;;;;;4912747;29;20101;-79
2021/12/01 13:29:30;;;;;;;17.63;10.98;;;;;;;;;;4911487;29;20049;-79
2021/12/01 13:32:18;;;;;;;17.75;10.85;;;;;;;;;;4914261;29;20044;-78
2021/12/01 13:35:05;;;;;;;16.45;10.45;;;;;;;;;;4913173;29;20062;-77
2021/12/01 13:38:01;;;;;;;22.80;13.35;;;;;;;;;;4926560;29;20044;-78
2021/12/01 13:40:48;;;;;;;15.63;10.27;;;;;;;;;;4927621;29;20047;-79
2021/12/01 13:43:34;;;;;;;18.55;12.02;;;;;;;;;;4925628;29;20040;-78
2021/12/01 13:46:21;;;;;;;15.48;11.38;;;;;;;;;;4927944;29;20058;-77
2021/12/01 13:49:08;;;;;;;21.48;14.10;;;;;;;;;;4927564;29;20044;-77
2021/12/01 13:51:55;;;;;;;27.23;14.45;;;;;;;;;;4929393;29;20020;-77
2021/12/01 13:54:42;;;;;;;24.10;15.00;;;;;;;;;;4929042;29;20051;-77
2021/12/01 13:57:29;;;;;;;25.38;17.25;;;;;;;;;;4931511;29;20039;-78
2021/12/01 14:00:16;;;;;;;25.48;16.60;;;;;;;;;;4929397;29;20028;-78
2021/12/01 14:03:04;;;;;;;21.33;12.43;;;;;;;;;;4942303;29;20036;-78
2021/12/01 14:05:52;;;;;;;26.90;16.25;;;;;;;;;;4914838;29;20487;-78
2021/12/01 14:08:41;;;;;;;29.05;17.70;;;;;;;;;;4918522;29;20062;-77
2021/12/01 14:11:29;;;;;;;25.17;15.05;;;;;;;;;;4913872;29;20042;-77
2021/12/01 14:14:17;;;;;;;28.92;18.70;;;;;;;;;;4915096;29;20060;-79
2021/12/01 14:17:04;;;;;;;30.98;18.73;;;;;;;;;;4915331;29;20036;-79
2021/12/01 14:19:56;;;;;;;33.40;19.92;;;;;;;;;;4913449;29;20047;-79
2021/12/01 14:22:42;;;;;;;;;;;;;;;;;;4915018;29;20031;-80
2021/12/01 14:25:30;;;;;;;33.67;19.92;;;;;;;;;;4912357;29;19911;-78
2021/12/01 14:28:17;;;;;;;33.13;17.88;;;;;;;;;;4909858;29;20503;-78
2021/12/01 14:31:05;;;;;;;23.88;14.80;;;;;;;;;;4914303;29;20040;-79
2021/12/01 14:34:01;;;;;;;30.85;17.25;;;;;;;;;;4913122;29;20089;-78
2021/12/01 14:36:52;;;;;;;32.45;18.05;;;;;;;;;;4910511;29;20044;-78
2021/12/01 14:39:40;;;;;;;35.50;21.67;;;;;;;;;;4918801;29;20028;-78
2021/12/01 14:42:26;;;;;;;26.77;18.52;;;;;;;;;;4914966;29;20974;-78
2021/12/01 14:45:14;;;;;;;31.30;20.52;;;;;;;;;;4912618;29;20040;-79
2021/12/01 14:48:05;;;;;;;33.97;20.83;;;;;;;;;;4913984;29;20048;-78
2021/12/01 14:50:54;;;;;;;31.27;19.58;;;;;;;;;;4910718;29;20044;-78
2021/12/01 14:53:42;;;;;;;35.13;20.55;;;;;;;;;;4915823;29;20028;-77
2021/12/01 14:56:28;;;;;;;34.30;20.48;;;;;;;;;;4913192;29;20039;-78
2021/12/01 14:59:16;;;;;;;35.50;20.75;;;;;;;;;;4911567;29;20036;-77
2021/12/01 15:02:10;;;;;;;32.20;19.25;;;;;;;;;;4915031;29;20051;-77
2021/12/01 15:05:09;;;;;;;33.83;20.40;;;;;;;;;;4910794;29;20045;-78
2021/12/01 15:07:55;;;;;;;29.55;17.60;;;;;;;;;;4913657;29;20075;-78
2021/12/01 15:10:46;;;;;;;36.42;21.92;;;;;;;;;;4911967;29;20036;-77
2021/12/01 15:13:35;;;;;;;36.42;22.63;;;;;;;;;;4910925;29;20036;-78
2021/12/01 15:16:23;;;;;;;34.38;20.67;;;;;;;;;;4913389;29;20028;-78
2021/12/01 15:19:12;;;;;;;34.42;21.00;;;;;;;;;;4912896;29;20036;-79
2021/12/01 15:21:58;;;;;;;39.50;23.23;;;;;;;;;;4914076;29;20043;-78
2021/12/01 15:24:48;;;;;;;27.65;15.07;;;;;;;;;;4911593;29;20404;-78
2021/12/01 15:27:34;;;;;;;26.80;16.98;;;;;;;;;;4914782;29;20039;-78
2021/12/01 15:30:21;;;;;;;29.67;17.25;;;;;;;;;;4912243;29;20043;-77
2021/12/01 15:33:13;;;;;;;31.02;19.80;;;;;;;;;;4915419;29;20131;-78
2021/12/01 15:36:01;;;;;;;33.28;21.25;;;;;;;;;;4913945;29;20048;-75
2021/12/01 15:38:48;;;;;;;35.85;23.35;;;;;;;;;;4910181;29;20029;-74
2021/12/01 15:41:34;;;;;;;32.08;21.38;;;;;;;;;;4908297;29;20058;-74
2021/12/01 15:44:21;;;;;;;30.40;18.92;;;;;;;;;;4913811;29;20087;-74
2021/12/01 15:47:08;;;;;;;35.17;21.60;;;;;;;;;;4912174;29;20256;-74
2021/12/01 15:49:56;;;;;;;39.03;22.13;;;;;;;;;;4909790;29;20047;-75
2021/12/01 15:52:44;;;;;;;33.45;20.10;;;;;;;;;;4904258;29;20024;-75
2021/12/01 15:55:31;;;;;;;33.35;18.88;;;;;;;;;;4914933;29;20044;-75
2021/12/01 15:58:21;;;;;;;31.33;18.65;;;;;;;;;;4912390;29;20092;-75
2021/12/01 16:01:07;;;;;;;33.22;21.63;;;;;;;;;;4908987;29;20542;-75
2021/12/01 16:03:54;;;;;;;32.80;19.73;;;;;;;;;;4913151;29;20043;-75
2021/12/01 16:06:42;;;;;;;24.92;15.18;;;;;;;;;;4911613;29;20600;-75
2021/12/01 16:09:32;;;;;;;33.65;20.65;;;;;;;;;;4914766;29;20040;-74
2021/12/01 16:12:18;;;;;;;32.13;19.33;;;;;;;;;;4910721;29;20400;-74
2021/12/01 16:15:06;;;;;;;31.30;19.20;;;;;;;;;;4907139;29;20036;-74
2021/12/01 16:17:53;;;;;;;35.50;21.92;;;;;;;;;;4911664;29;20408;-74
2021/12/01 16:20:41;;;;;;;40.95;24.52;;;;;;;;;;4905756;29;20044;-74
2021/12/01 16:23:29;;;;;;;42.65;24.35;;;;;;;;;;4906631;29;20077;-74
2021/12/01 16:26:16;;;;;;;41.17;24.70;;;;;;;;;;4913465;29;20038;-74
2021/12/01 16:29:03;;;;;;;39.05;24.15;;;;;;;;;;4913568;29;20044;-75
2021/12/01 16:31:50;;;;;;;34.05;21.58;;;;;;;;;;4915553;28;20036;-74
2021/12/01 16:34:36;;;;;;;39.22;25.95;;;;;;;;;;4912547;29;20048;-74
2021/12/01 16:37:23;;;;;;;41.80;25.45;;;;;;;;;;4912325;29;20032;-74
2021/12/01 16:40:10;;;;;;;41.83;25.40;;;;;;;;;;4897489;29;20538;-74
2021/12/01 16:42:57;;;;;;;39.50;24.23;;;;;;;;;;4914618;29;20028;-75
2021/12/01 16:45:44;;;;;;;45.38;25.10;;;;;;;;;;4912299;29;20480;-73
2021/12/01 16:48:32;;;;;;;36.92;23.70;;;;;;;;;;4907993;29;20412;-75
2021/12/01 16:51:21;;;;;;;44.15;24.98;;;;;;;;;;4908759;29;20040;-74
2021/12/01 16:54:08;;;;;;;42.33;25.88;;;;;;;;;;4913857;29;20036;-75
2021/12/01 16:56:55;;;;;;;35.67;24.83;;;;;;;;;;4910518;29;20036;-75
2021/12/01 16:59:42;;;;;;;38.70;24.88;;;;;;;;;;4902927;29;20043;-74
2021/12/01 17:02:29;;;;;;;36.55;22.88;;;;;;;;;;4911316;29;20043;-75
2021/12/01 17:05:19;;;;;;;41.55;25.35;;;;;;;;;;4909901;29;20040;-74
2021/12/01 17:10:56;;;;;;;40.83;26.27;;;;;;;;;;4908184;29;20083;-75
2021/12/01 17:13:43;;;;;;;39.95;24.77;;;;;;;;;;4908187;29;20036;-75
2021/12/01 17:16:29;;;;;;;42.13;26.30;;;;;;;;;;4911509;29;20649;-75
2021/12/01 17:19:17;;;;;;;39.85;26.88;;;;;;;;;;4911744;29;20032;-76
2021/12/01 17:22:04;;;;;;;45.47;28.52;;;;;;;;;;4906069;29;20544;-74
2021/12/01 17:24:51;;;;;;;43.10;28.67;;;;;;;;;;4913628;29;20032;-75
2021/12/01 17:27:38;;;;;;;46.28;27.92;;;;;;;;;;4906142;29;20048;-74
2021/12/01 17:30:30;;;;;;;46.22;29.35;;;;;;;;;;4907267;29;20415;-75
2021/12/01 17:33:17;;;;;;;44.17;26.85;;;;;;;;;;4908417;29;20036;-75
2021/12/01 17:36:04;;;;;;;46.67;28.70;;;;;;;;;;4907274;29;20063;-75
2021/12/01 17:38:52;;;;;;;46.05;28.58;;;;;;;;;;4901406;29;20028;-76
2021/12/01 17:41:39;;;;;;;43.67;28.20;;;;;;;;;;4912307;29;20033;-75
2021/12/01 17:44:25;;;;;;;51.90;29.48;;;;;;;;;;4911676;29;20059;-73
2021/12/01 17:47:12;;;;;;;42.97;28.55;;;;;;;;;;4909788;29;20034;-74
2021/12/01 17:49:59;;;;;;;45.70;27.73;;;;;;;;;;4906879;29;20334;-75
2021/12/01 17:52:46;;;;;;;44.05;25.92;;;;;;;;;;4913343;29;20039;-74
2021/12/01 17:55:37;;;;;;;44.40;26.40;;;;;;;;;;4911114;29;20047;-75
2021/12/01 17:58:24;;;;;;;40.13;24.98;;;;;;;;;;4900198;29;20092;-73
2021/12/01 18:01:11;;;;;;;44.70;25.85;;;;;;;;;;4910281;29;20048;-74
2021/12/01 18:03:58;;;;;;;18.40;11.77;;;;;;;;;;4907315;29;20456;-75
2021/12/01 18:06:47;;;;;;;47.05;27.05;;;;;;;;;;4909272;29;20551;-75
2021/12/01 18:09:33;;;;;;;41.10;26.38;;;;;;;;;;4912860;29;20712;-75
2021/12/01 18:12:20;;;;;;;41.85;26.38;;;;;;;;;;4908804;29;20043;-76
2021/12/01 18:15:08;;;;;;;45.22;26.55;;;;;;;;;;4911363;29;20389;-75
2021/12/01 18:17:55;;;;;;;46.40;26.55;;;;;;;;;;4914210;29;20066;-76
2021/12/01 18:20:41;;;;;;;45.17;25.33;;;;;;;;;;4916966;29;20047;-74
2021/12/01 18:23:28;;;;;;;42.10;25.40;;;;;;;;;;4906901;29;20048;-76
2021/12/01 18:26:18;;;;;;;47.22;27.67;;;;;;;;;;4911480;29;20036;-74
2021/12/01 18:29:06;;;;;;;40.95;25.95;;;;;;;;;;4906103;29;20043;-74
2021/12/01 18:31:53;;;;;;;44.15;27.42;;;;;;;;;;4908464;29;20039;-75
2021/12/01 18:34:40;;;;;;;42.05;24.55;;;;;;;;;;4916164;29;20071;-75
2021/12/01 18:37:27;;;;;;;41.85;26.80;;;;;;;;;;4917504;29;20044;-76
2021/12/01 18:40:14;;;;;;;41.47;25.95;;;;;;;;;;4916758;29;20044;-74
2021/12/01 18:43:01;;;;;;;46.47;26.45;;;;;;;;;;4918889;29;20050;-74
2021/12/01 18:45:48;;;;;;;35.97;24.02;;;;;;;;;;4915622;29;20036;-77
2021/12/01 18:48:34;;;;;;;39.15;25.55;;;;;;;;;;4915872;29;20479;-75
2021/12/01 18:51:21;;;;;;;42.17;25.85;;;;;;;;;;4918608;29;20051;-75
2021/12/01 18:54:09;;;;;;;39.55;25.50;;;;;;;;;;4927735;29;20035;-76
2021/12/01 18:56:55;;;;;;;39.20;24.92;;;;;;;;;;4926623;29;20036;-75
2021/12/01 18:59:42;;;;;;;42.97;25.42;;;;;;;;;;4921023;29;20031;-81
2021/12/01 19:02:32;;;;;;;42.90;25.15;;;;;;;;;;4920633;29;20043;-79
2021/12/01 19:05:19;;;;;;;47.40;25.63;;;;;;;;;;4923750;29;20031;-78
2021/12/01 19:08:06;;;;;;;38.63;24.38;;;;;;;;;;4913027;29;20048;-78
2021/12/01 19:10:53;;;;;;;40.55;25.40;;;;;;;;;;4919962;29;20064;-80
2021/12/01 19:13:40;;;;;;;40.03;24.98;;;;;;;;;;4916925;29;20043;-80
2021/12/01 19:16:27;;;;;;;43.80;24.92;;;;;;;;;;4926848;29;20043;-78
2021/12/01 19:19:14;;;;;;;39.70;24.92;;;;;;;;;;4913246;29;20518;-78
2021/12/01 19:22:01;;;;;;;43.63;25.83;;;;;;;;;;4913150;29;20484;-77
2021/12/01 19:24:48;;;;;;;41.22;25.40;;;;;;;;;;4921122;29;20063;-77
2021/12/01 19:27:35;;;;;;;46.53;28.88;;;;;;;;;;4916958;29;20032;-78
2021/12/01 19:30:23;;;;;;;53.63;30.13;;;;;;;;;;4917902;29;20050;-76
2021/12/01 19:33:10;;;;;;;47.03;28.77;;;;;;;;;;4919547;29;20040;-77
2021/12/01 19:35:57;;;;;;;53.35;33.25;;;;;;;;;;4917391;29;20055;-77
2021/12/01 19:38:44;;;;;;;52.10;32.55;;;;;;;;;;4918923;29;20043;-77
2021/12/01 19:41:31;;;;;;;51.20;31.95;;;;;;;;;;4916749;29;20131;-77
2021/12/01 19:44:17;;;;;;;56.65;35.58;;;;;;;;;;4919516;29;20036;-79
2021/12/01 19:47:05;;;;;;;61.22;36.03;;;;;;;;;;4914255;29;20036;-86
2021/12/01 19:49:52;;;;;;;67.47;37.80;;;;;;;;;;4918387;29;20048;-79
2021/12/01 19:52:38;;;;;;;60.38;37.92;;;;;;;;;;4911038;29;20038;-78
2021/12/01 19:55:25;;;;;;;59.92;36.90;;;;;;;;;;4914830;29;20044;-77
2021/12/01 19:58:12;;;;;;;62.95;38.50;;;;;;;;;;4917005;29;20036;-78
2021/12/01 20:01:00;;;;;;;68.63;42.15;;;;;;;;;;4920200;29;20036;-78
2021/12/01 20:03:46;;;;;;;66.22;43.58;;;;;;;;;;4919598;29;20051;-78
2021/12/01 20:06:33;;;;;;;72.38;42.55;;;;;;;;;;4916436;29;20044;-77
2021/12/01 20:09:20;;;;;;;66.15;44.17;;;;;;;;;;4916293;29;20047;-78
2021/12/01 20:12:07;;;;;;;69.18;41.22;;;;;;;;;;4915684;29;20451;-79
2021/12/01 20:14:55;;;;;;;73.22;46.95;;;;;;;;;;4912781;29;20598;-80
2021/12/01 20:17:42;;;;;;;76.00;47.15;;;;;;;;;;4913952;29;20051;-77
2021/12/01 20:20:30;;;;;;;75.35;46.50;;;;;;;;;;4918507;29;20032;-78
2021/12/01 20:23:17;;;;;;;72.78;48.80;;;;;;;;;;4916855;29;20046;-78
2021/12/01 20:26:03;;;;;;;80.68;51.65;;;;;;;;;;4917418;29;20038;-77
2021/12/01 20:28:50;;;;;;;71.20;49.28;;;;;;;;;;4919575;29;20040;-77
2021/12/01 20:31:37;;;;;;;76.35;51.33;;;;;;;;;;4919139;29;20054;-77
2021/12/01 20:34:26;;;;;;;80.20;51.97;;;;;;;;;;4916775;29;20035;-77
2021/12/01 20:37:16;;;;;;;83.50;51.33;;;;;;;;;;4917682;29;20058;-78
2021/12/01 20:40:06;;;;;;;81.57;51.22;;;;;;;;;;4920134;29;20035;-78
2021/12/01 20:42:54;;;;;;;80.40;52.85;;;;;;;;;;4916753;29;20176;-78
2021/12/01 20:45:55;;;;;;;86.10;52.88;;;;;;;;;;4925366;29;20028;-79
2021/12/01 21:01:33;;;;;;;88.53;53.80;;;;;;;;;;4912497;29;20032;-78
2021/12/01 21:04:26;;;;;;;87.28;52.10;;;;;;;;;;4907951;29;20052;-78
2021/12/01 21:07:14;;;;;;;69.45;46.15;;;;;;;;;;4907759;29;20048;-78
2021/12/01 21:10:01;;;;;;;76.88;49.53;;;;;;;;;;4910853;29;20416;-77
2021/12/01 21:12:48;;;;;;;79.53;50.78;;;;;;;;;;4910052;29;20032;-79
2021/12/01 21:15:36;;;;;;;85.25;56.03;;;;;;;;;;4910006;29;20028;-79
2021/12/01 21:18:23;;;;;;;67.68;46.40;;;;;;;;;;4912125;29;20032;-78
2021/12/01 21:21:14;;;;;;;70.15;45.20;;;;;;;;;;4912085;29;20036;-78
2021/12/01 21:24:01;;;;;;;62.53;41.17;;;;;;;;;;4911923;29;20048;-79
2021/12/01 21:26:48;;;;;;;62.53;42.78;;;;;;;;;;4912158;29;20032;-79
2021/12/01 21:29:36;;;;;;;78.13;47.35;;;;;;;;;;4910553;29;20043;-79
2021/12/01 21:32:25;;;;;;;77.47;49.53;;;;;;;;;;4912264;29;20032;-78
2021/12/01 21:35:11;;;;;;;79.45;52.78;;;;;;;;;;4910528;29;20060;-78
2021/12/01 21:37:58;;;;;;;58.00;39.42;;;;;;;;;;4912944;29;20052;-79
2021/12/01 21:40:45;;;;;;;65.95;41.67;;;;;;;;;;4915910;29;20458;-78
2021/12/01 21:43:32;;;;;;;82.10;52.55;;;;;;;;;;4912946;29;20036;-78
2021/12/01 21:46:19;;;;;;;87.95;52.10;;;;;;;;;;4912614;29;20498;-79
2021/12/01 21:49:06;;;;;;;80.30;50.80;;;;;;;;;;4912387;29;20531;-77
2021/12/01 21:51:53;;;;;;;94.20;57.08;;;;;;;;;;4912575;29;20480;-79
2021/12/01 21:54:41;;;;;;;92.18;60.55;;;;;;;;;;4911539;29;20032;-79
2021/12/01 21:57:28;;;;;;;85.80;54.35;;;;;;;;;;4909491;29;20042;-78
2021/12/01 22:00:15;;;;;;;92.28;57.22;;;;;;;;;;4917116;29;20028;-78
2021/12/01 22:03:04;;;;;;;97.63;63.95;;;;;;;;;;4906554;29;20036;-77
2021/12/01 22:05:51;;;;;;;100.22;63.67;;;;;;;;;;4909603;29;20046;-79
2021/12/01 22:08:38;;;;;;;90.18;57.05;;;;;;;;;;4910055;29;20519;-79
2021/12/01 22:11:25;;;;;;;89.90;56.25;;;;;;;;;;4908918;29;20055;-79
2021/12/01 22:14:13;;;;;;;81.22;49.55;;;;;;;;;;4911341;29;20036;-80
2021/12/01 22:17:00;;;;;;;93.97;57.92;;;;;;;;;;4908856;29;20054;-78
2021/12/01 22:19:48;;;;;;;92.72;58.47;;;;;;;;;;4906458;29;20061;-77
2021/12/01 22:22:37;;;;;;;75.03;49.15;;;;;;;;;;4909639;29;20043;-76
2021/12/01 22:25:24;;;;;;;92.25;62.15;;;;;;;;;;4909651;29;20071;-76
2021/12/01 22:28:11;;;;;;;85.93;55.97;;;;;;;;;;4907733;29;20052;-78
2021/12/01 22:30:58;;;;;;;88.65;58.20;;;;;;;;;;4909200;29;20044;-78
2021/12/01 22:33:45;;;;;;;96.40;61.92;;;;;;;;;;4909375;29;20496;-77
2021/12/01 22:36:33;;;;;;;103.15;64.95;;;;;;;;;;4909354;29;20133;-77
2021/12/01 22:39:20;;;;;;;98.65;62.95;;;;;;;;;;4908079;29;20044;-77
2021/12/01 22:42:06;;;;;;;96.53;58.60;;;;;;;;;;4911093;29;20040;-76
2021/12/01 22:44:54;;;;;;;108.38;68.50;;;;;;;;;;4904729;29;20104;-77
2021/12/01 22:47:41;;;;;;;77.78;50.58;;;;;;;;;;4910184;29;20032;-77
2021/12/01 22:50:28;;;;;;;45.95;31.67;;;;;;;;;;4911777;29;20047;-77
2021/12/01 22:53:15;;;;;;;92.45;56.50;;;;;;;;;;4910272;29;20219;-77
2021/12/01 22:56:06;;;;;;;91.25;60.00;;;;;;;;;;4908781;29;20055;-76
2021/12/01 22:59:14;;;;;;;64.73;40.87;;;;;;;;;;4913112;29;20035;-76
2021/12/01 23:02:03;;;;;;;105.65;65.75;;;;;;;;;;4913298;29;20447;-77
2021/12/01 23:04:52;;;;;;;76.82;48.47;;;;;;;;;;4914057;29;20028;-77
2021/12/01 23:07:39;;;;;;;91.72;59.88;;;;;;;;;;4909465;29;20039;-77
2021/12/01 23:10:26;;;;;;;84.15;51.17;;;;;;;;;;4914044;29;20055;-76
2021/12/01 23:13:14;;;;;;;92.97;61.42;;;;;;;;;;4912282;29;20040;-76
2021/12/01 23:16:01;;;;;;;89.25;56.53;;;;;;;;;;4906355;29;20055;-77